createdAt,value
2023-04-02T00:00:45.963Z,99.99
2023-04-02T00:01:45.978Z,99.99
2023-04-02T00:02:45.992Z,99.99
2023-04-02T00:03:46.035Z,99.99
2023-04-02T00:04:45.962Z,99.99
2023-04-02T00:05:45.887Z,99.99
2023-04-02T00:06:45.914Z,99.99
2023-04-02T00:07:45.894Z,99.99
2023-04-02T00:08:45.873Z,99.99
2023-04-02T00:09:45.871Z,99.99
2023-04-02T00:10:45.840Z,99.99
2023-04-02T00:11:45.853Z,99.99
2023-04-02T00:12:45.837Z,99.99
2023-04-02T00:13:45.816Z,99.99
2023-04-02T00:14:45.861Z,99.99
2023-04-02T00:15:45.804Z,99.99
2023-04-02T00:16:45.805Z,99.99
2023-04-02T00:17:45.799Z,99.99
2023-04-02T00:18:45.785Z,99.99
2023-04-02T00:19:45.806Z,99.99
2023-04-02T00:20:45.747Z,99.99
2023-04-02T00:21:45.735Z,99.99
2023-04-02T00:22:45.745Z,99.99
2023-04-02T00:23:45.738Z,99.99
2023-04-02T00:24:46.073Z,99.99
2023-04-02T00:25:45.843Z,99.99
2023-04-02T00:26:45.720Z,99.99
2023-04-02T00:27:45.676Z,99.99
2023-04-02T00:28:45.692Z,99.99
2023-04-02T00:29:45.651Z,99.99
2023-04-02T00:30:45.662Z,99.99
2023-04-02T00:31:45.683Z,99.99
2023-04-02T00:32:45.694Z,99.99
2023-04-02T00:33:45.612Z,99.99
2023-04-02T00:34:45.611Z,99.99
2023-04-02T00:35:45.613Z,99.99
2023-04-02T00:36:45.568Z,99.99
2023-04-02T00:37:45.563Z,99.99
2023-04-02T00:38:47.415Z,99.99
2023-04-02T00:39:45.542Z,99.99
2023-04-02T00:40:45.528Z,99.99
2023-04-02T00:41:45.519Z,99.99
2023-04-02T00:42:45.504Z,99.99
2023-04-02T00:43:45.511Z,99.99
2023-04-02T00:44:45.490Z,99.99
2023-04-02T00:45:45.511Z,99.99
2023-04-02T00:46:45.486Z,99.99
2023-04-02T00:47:45.508Z,99.99
2023-04-02T00:48:45.461Z,99.99
2023-04-02T00:49:45.432Z,99.99
2023-04-02T00:50:45.446Z,99.99
2023-04-02T00:51:45.405Z,99.99
2023-04-02T00:52:45.416Z,99.99
2023-04-02T00:53:45.387Z,99.99
2023-04-02T00:54:45.393Z,99.99
2023-04-02T00:55:45.451Z,99.99
2023-04-02T00:56:45.358Z,99.99
2023-04-02T00:57:45.358Z,99.99
2023-04-02T00:58:45.361Z,99.99
2023-04-02T00:59:45.370Z,99.99
2023-04-02T01:00:45.333Z,99.99
2023-04-02T01:01:45.430Z,99.99
2023-04-02T01:02:45.371Z,99.99
2023-04-02T01:03:45.406Z,99.99
2023-04-02T01:04:45.271Z,99.99
2023-04-02T01:05:45.260Z,99.99
2023-04-02T01:06:45.277Z,99.99
2023-04-02T01:07:45.233Z,99.99
2023-04-02T01:08:45.257Z,99.99
2023-04-02T01:09:45.213Z,99.99
2023-04-02T01:10:45.251Z,99.99
2023-04-02T01:11:45.196Z,99.99
2023-04-02T01:12:45.204Z,99.99
2023-04-02T01:13:45.192Z,99.99
2023-04-02T01:14:45.171Z,99.99
2023-04-02T01:15:45.212Z,99.99
2023-04-02T01:16:45.143Z,99.99
2023-04-02T01:17:45.239Z,99.99
2023-04-02T01:18:45.138Z,99.99
2023-04-02T01:19:45.103Z,99.99
2023-04-02T01:20:45.118Z,99.99
2023-04-02T01:21:45.091Z,99.99
2023-04-02T01:22:45.070Z,99.99
2023-04-02T01:23:45.077Z,99.99
2023-04-02T01:24:45.053Z,99.99
2023-04-02T01:25:45.064Z,99.99
2023-04-02T01:26:45.260Z,99.99
2023-04-02T01:27:45.031Z,99.99
2023-04-02T01:28:45.030Z,99.99
2023-04-02T01:29:45.002Z,99.99
2023-04-02T01:30:44.994Z,99.99
2023-04-02T01:31:45.246Z,99.99
2023-04-02T01:32:45.046Z,99.99
2023-04-02T01:33:44.985Z,99.99
2023-04-02T01:34:44.953Z,99.99
2023-04-02T01:35:44.959Z,99.99
2023-04-02T01:36:44.967Z,99.99
2023-04-02T01:37:44.976Z,99.99
2023-04-02T01:38:44.905Z,99.99
2023-04-02T01:39:44.890Z,99.99
2023-04-02T01:40:44.900Z,99.99
2023-04-02T01:41:44.893Z,99.99
2023-04-02T01:42:44.897Z,99.99
2023-04-02T01:43:44.855Z,99.85
2023-04-02T01:44:44.867Z,99.99
2023-04-02T01:45:44.839Z,99.99
2023-04-02T01:46:44.922Z,99.99
2023-04-02T01:47:44.872Z,99.64
2023-04-02T01:48:44.816Z,99.64
2023-04-02T01:49:44.796Z,99.85
2023-04-02T01:50:44.781Z,99.54
2023-04-02T01:51:44.769Z,99.33
2023-04-02T01:52:44.748Z,99.12
2023-04-02T01:53:44.762Z,99.22
2023-04-02T01:54:44.731Z,99.12
2023-04-02T01:55:44.733Z,99.54
2023-04-02T01:56:44.702Z,99.43
2023-04-02T01:57:44.757Z,99.43
2023-04-02T01:58:44.677Z,99.43
2023-04-02T01:59:44.682Z,99.33
2023-04-02T02:00:44.714Z,99.12
2023-04-02T02:01:44.694Z,98.71
2023-04-02T02:02:44.696Z,98.81
2023-04-02T02:03:44.627Z,99.12
2023-04-02T02:04:44.629Z,98.96
2023-04-02T02:05:44.623Z,98.71
2023-04-02T02:06:44.598Z,98.65
2023-04-02T02:07:44.593Z,98.75
2023-04-02T02:08:44.625Z,98.44
2023-04-02T02:09:44.577Z,98.33
2023-04-02T02:10:44.560Z,98.44
2023-04-02T02:11:44.567Z,98.23
2023-04-02T02:12:44.556Z,97.92
2023-04-02T02:13:44.534Z,98.02
2023-04-02T02:14:44.533Z,97.71
2023-04-02T02:15:44.547Z,97.81
2023-04-02T02:16:44.592Z,97.81
2023-04-02T02:17:44.506Z,97.71
2023-04-02T02:18:44.468Z,97.19
2023-04-02T02:19:44.464Z,97.40
2023-04-02T02:20:44.476Z,97.19
2023-04-02T02:21:44.469Z,96.88
2023-04-02T02:22:44.434Z,96.67
2023-04-02T02:23:44.438Z,96.67
2023-04-02T02:24:44.426Z,96.47
2023-04-02T02:25:44.428Z,96.47
2023-04-02T02:26:44.383Z,96.88
2023-04-02T02:27:44.394Z,96.98
2023-04-02T02:28:44.722Z,97.19
2023-04-02T02:29:44.360Z,97.19
2023-04-02T02:30:44.343Z,96.98
2023-04-02T02:31:44.385Z,97.09
2023-04-02T02:32:44.401Z,96.78
2023-04-02T02:33:44.361Z,95.94
2023-04-02T02:34:44.321Z,96.25
2023-04-02T02:35:44.375Z,96.57
2023-04-02T02:36:52.840Z,96.36
2023-04-02T02:37:52.798Z,96.36
2023-04-02T02:38:44.277Z,96.36
2023-04-02T02:39:44.278Z,96.15
2023-04-02T02:40:44.235Z,95.73
2023-04-02T02:41:44.253Z,96.25
2023-04-02T02:42:44.213Z,96.47
2023-04-02T02:43:44.224Z,96.57
2023-04-02T02:44:44.201Z,96.78
2023-04-02T02:45:44.270Z,96.98
2023-04-02T02:46:44.175Z,97.30
2023-04-02T02:47:44.210Z,97.30
2023-04-02T02:48:44.183Z,96.98
2023-04-02T02:49:44.154Z,96.92
2023-04-02T02:50:44.156Z,96.92
2023-04-02T02:51:44.129Z,97.34
2023-04-02T02:52:44.094Z,97.13
2023-04-02T02:53:44.113Z,97.44
2023-04-02T02:54:44.112Z,97.34
2023-04-02T02:55:44.086Z,97.44
2023-04-02T02:56:44.073Z,97.44
2023-04-02T02:57:44.091Z,97.44
2023-04-02T02:58:44.053Z,97.24
2023-04-02T02:59:44.094Z,97.24
2023-04-02T03:00:44.040Z,97.44
2023-04-02T03:01:44.093Z,97.44
2023-04-02T03:02:44.105Z,96.92
2023-04-02T03:03:44.277Z,96.82
2023-04-02T03:04:43.970Z,97.24
2023-04-02T03:05:43.998Z,97.13
2023-04-02T03:06:43.961Z,97.24
2023-04-02T03:07:43.955Z,97.55
2023-04-02T03:08:43.958Z,97.75
2023-04-02T03:09:43.966Z,97.34
2023-04-02T03:10:43.924Z,96.92
2023-04-02T03:11:43.906Z,96.82
2023-04-02T03:12:43.891Z,96.92
2023-04-02T03:13:43.921Z,97.13
2023-04-02T03:14:43.860Z,96.92
2023-04-02T03:15:43.938Z,97.03
2023-04-02T03:16:43.846Z,97.55
2023-04-02T03:17:43.906Z,97.75
2023-04-02T03:18:43.845Z,97.59
2023-04-02T03:19:43.842Z,97.13
2023-04-02T03:20:43.820Z,96.82
2023-04-02T03:21:43.817Z,96.61
2023-04-02T03:22:43.811Z,96.66
2023-04-02T03:23:43.814Z,96.76
2023-04-02T03:24:43.773Z,96.97
2023-04-02T03:25:43.805Z,97.49
2023-04-02T03:26:43.768Z,97.70
2023-04-02T03:27:43.773Z,97.91
2023-04-02T03:28:43.737Z,97.80
2023-04-02T03:29:43.745Z,97.28
2023-04-02T03:30:43.818Z,97.28
2023-04-02T03:31:43.773Z,97.49
2023-04-02T03:32:43.760Z,97.59
2023-04-02T03:33:43.703Z,97.70
2023-04-02T03:34:43.678Z,97.70
2023-04-02T03:35:43.699Z,97.80
2023-04-02T03:36:43.680Z,97.91
2023-04-02T03:37:43.662Z,97.80
2023-04-02T03:38:43.667Z,97.80
2023-04-02T03:39:43.630Z,97.70
2023-04-02T03:40:43.633Z,98.01
2023-04-02T03:41:43.624Z,98.01
2023-04-02T03:42:43.607Z,98.26
2023-04-02T03:43:43.592Z,98.22
2023-04-02T03:44:43.580Z,98.22
2023-04-02T03:45:43.557Z,98.57
2023-04-02T03:46:52.171Z,98.26
2023-04-02T03:47:43.574Z,97.95
2023-04-02T03:48:43.534Z,98.26
2023-04-02T03:49:43.534Z,97.95
2023-04-02T03:50:52.021Z,97.85
2023-04-02T03:51:53.063Z,98.16
2023-04-02T03:52:43.488Z,98.16
2023-04-02T03:53:52.035Z,98.16
2023-04-02T03:54:54.254Z,98.47
2023-04-02T03:55:44.466Z,98.26
2023-04-02T03:56:51.986Z,98.26
2023-04-02T03:57:43.443Z,98.26
2023-04-02T03:58:43.425Z,98.26
2023-04-02T03:59:43.410Z,97.74
2023-04-02T04:00:43.414Z,97.43
2023-04-02T04:01:53.532Z,97.33
2023-04-02T04:02:43.386Z,97.33
2023-04-02T04:03:52.045Z,97.43
2023-04-02T04:04:43.343Z,97.85
2023-04-02T04:05:51.907Z,97.85
2023-04-02T04:06:43.323Z,97.74
2023-04-02T04:07:43.347Z,97.74
2023-04-02T04:08:43.318Z,97.53
2023-04-02T04:09:43.329Z,97.53
2023-04-02T04:10:43.320Z,97.53
2023-04-02T04:11:43.331Z,97.33
2023-04-02T04:12:43.287Z,97.22
2023-04-02T04:13:43.281Z,97.33
2023-04-02T04:14:45.174Z,97.53
2023-04-02T04:15:43.260Z,97.33
2023-04-02T04:16:43.276Z,97.33
2023-04-02T04:17:43.332Z,97.12
2023-04-02T04:18:43.221Z,96.59
2023-04-02T04:19:43.219Z,96.91
2023-04-02T04:20:43.189Z,97.12
2023-04-02T04:21:43.200Z,97.53
2023-04-02T04:22:43.195Z,97.33
2023-04-02T04:23:43.197Z,97.12
2023-04-02T04:24:43.143Z,96.91
2023-04-02T04:25:43.157Z,96.91
2023-04-02T04:26:43.147Z,97.33
2023-04-02T04:27:43.153Z,96.91
2023-04-02T04:28:43.120Z,96.49
2023-04-02T04:29:43.117Z,96.39
2023-04-02T04:30:43.100Z,96.18
2023-04-02T04:31:43.146Z,96.08
2023-04-02T04:32:43.238Z,95.66
2023-04-02T04:33:43.075Z,95.45
2023-04-02T04:34:43.059Z,95.76
2023-04-02T04:35:43.081Z,95.87
2023-04-02T04:36:43.027Z,95.66
2023-04-02T04:37:43.463Z,95.45
2023-04-02T04:38:43.028Z,95.76
2023-04-02T04:39:43.022Z,95.66
2023-04-02T04:40:42.990Z,95.76
2023-04-02T04:41:42.993Z,95.97
2023-04-02T04:42:43.002Z,95.97
2023-04-02T04:43:42.968Z,96.08
2023-04-02T04:44:42.991Z,95.97
2023-04-02T04:45:42.975Z,96.08
2023-04-02T04:46:42.927Z,95.76
2023-04-02T04:47:42.946Z,95.25
2023-04-02T04:48:42.907Z,95.25
2023-04-02T04:49:42.946Z,94.62
2023-04-02T04:50:42.887Z,94.51
2023-04-02T04:51:42.882Z,94.20
2023-04-02T04:52:42.866Z,94.20
2023-04-02T04:53:42.868Z,94.51
2023-04-02T04:54:42.848Z,94.51
2023-04-02T04:55:42.863Z,94.62
2023-04-02T04:56:42.805Z,94.72
2023-04-02T04:57:42.821Z,94.51
2023-04-02T04:58:42.798Z,94.41
2023-04-02T04:59:42.826Z,94.62
2023-04-02T05:00:42.780Z,94.82
2023-04-02T05:01:42.873Z,94.82
2023-04-02T05:02:42.800Z,94.82
2023-04-02T05:03:42.829Z,94.82
2023-04-02T05:04:42.767Z,94.72
2023-04-02T05:05:42.735Z,94.82
2023-04-02T05:06:42.706Z,94.72
2023-04-02T05:07:42.752Z,94.72
2023-04-02T05:08:42.690Z,94.31
2023-04-02T05:09:42.703Z,94.31
2023-04-02T05:10:42.676Z,94.20
2023-04-02T05:11:42.722Z,94.41
2023-04-02T05:12:42.670Z,94.72
2023-04-02T05:13:42.640Z,94.93
2023-04-02T05:14:42.621Z,94.51
2023-04-02T05:15:42.649Z,93.58
2023-04-02T05:16:42.802Z,93.68
2023-04-02T05:17:42.668Z,93.68
2023-04-02T05:18:42.587Z,93.79
2023-04-02T05:19:42.621Z,93.58
2023-04-02T05:20:42.577Z,93.58
2023-04-02T05:21:42.570Z,93.79
2023-04-02T05:22:42.544Z,93.58
2023-04-02T05:23:42.562Z,93.48
2023-04-02T05:24:42.533Z,93.16
2023-04-02T05:25:42.558Z,93.05
2023-04-02T05:26:42.518Z,93.27
2023-04-02T05:27:42.503Z,93.48
2023-04-02T05:28:42.506Z,93.37
2023-04-02T05:29:42.486Z,92.95
2023-04-02T05:30:42.453Z,92.12
2023-04-02T05:31:42.511Z,92.18
2023-04-02T05:32:42.528Z,91.91
2023-04-02T05:33:42.432Z,91.77
2023-04-02T05:34:42.618Z,91.35
2023-04-02T05:35:42.471Z,91.77
2023-04-02T05:36:42.437Z,91.87
2023-04-02T05:37:42.424Z,92.29
2023-04-02T05:38:42.386Z,91.56
2023-04-02T05:39:42.379Z,91.35
2023-04-02T05:40:42.405Z,90.72
2023-04-02T05:41:42.360Z,90.93
2023-04-02T05:42:42.381Z,89.79
2023-04-02T05:43:42.368Z,90.00
2023-04-02T05:44:42.321Z,89.79
2023-04-02T05:45:42.350Z,89.79
2023-04-02T05:46:42.327Z,90.20
2023-04-02T05:47:42.353Z,90.00
2023-04-02T05:48:42.297Z,90.00
2023-04-02T05:49:42.305Z,89.79
2023-04-02T05:50:42.294Z,89.48
2023-04-02T05:51:42.252Z,88.64
2023-04-02T05:52:42.251Z,88.23
2023-04-02T05:53:42.243Z,88.43
2023-04-02T05:54:42.257Z,88.75
2023-04-02T05:55:42.230Z,87.92
2023-04-02T05:56:42.216Z,88.12
2023-04-02T05:57:49.572Z,88.02
2023-04-02T05:58:45.473Z,87.71
2023-04-02T05:59:42.165Z,87.50
2023-04-02T06:00:42.175Z,87.71
2023-04-02T06:01:42.212Z,87.50
2023-04-02T06:02:42.204Z,87.46
2023-04-02T06:03:42.164Z,87.77
2023-04-02T06:04:42.123Z,87.15
2023-04-02T06:05:49.192Z,86.83
2023-04-02T06:06:42.105Z,86.32
2023-04-02T06:07:42.104Z,85.80
2023-04-02T06:08:42.104Z,86.25
2023-04-02T06:09:42.069Z,86.00
2023-04-02T06:10:42.073Z,86.11
2023-04-02T06:11:42.050Z,85.69
2023-04-02T06:12:42.178Z,85.49
2023-04-02T06:13:42.020Z,85.90
2023-04-02T06:14:42.027Z,85.69
2023-04-02T06:15:41.989Z,85.80
2023-04-02T06:16:42.039Z,86.00
2023-04-02T06:17:42.049Z,85.69
2023-04-02T06:18:41.973Z,86.00
2023-04-02T06:19:41.960Z,85.90
2023-04-02T06:20:41.967Z,86.11
2023-04-02T06:21:41.950Z,85.59
2023-04-02T06:22:41.924Z,85.28
2023-04-02T06:23:41.925Z,85.59
2023-04-02T06:24:41.910Z,86.00
2023-04-02T06:25:41.894Z,85.49
2023-04-02T06:26:41.882Z,85.59
2023-04-02T06:27:41.871Z,86.11
2023-04-02T06:28:41.867Z,86.00
2023-04-02T06:29:41.876Z,85.49
2023-04-02T06:30:41.913Z,85.80
2023-04-02T06:31:41.829Z,85.59
2023-04-02T06:32:41.943Z,85.69
2023-04-02T06:33:41.796Z,84.96
2023-04-02T06:34:41.822Z,84.75
2023-04-02T06:35:41.841Z,84.96
2023-04-02T06:36:41.981Z,84.86
2023-04-02T06:37:41.799Z,84.86
2023-04-02T06:38:41.793Z,85.06
2023-04-02T06:39:41.747Z,85.06
2023-04-02T06:40:41.762Z,84.34
2023-04-02T06:41:41.726Z,84.34
2023-04-02T06:42:41.752Z,84.03
2023-04-02T06:43:41.706Z,84.09
2023-04-02T06:44:41.704Z,83.72
2023-04-02T06:45:41.719Z,83.99
2023-04-02T06:46:41.699Z,83.78
2023-04-02T06:47:41.755Z,83.78
2023-04-02T06:48:41.663Z,83.47
2023-04-02T06:49:41.664Z,83.16
2023-04-02T06:50:41.653Z,82.95
2023-04-02T06:51:41.614Z,83.47
2023-04-02T06:52:41.630Z,83.58
2023-04-02T06:53:41.585Z,83.99
2023-04-02T06:54:41.630Z,84.09
2023-04-02T06:55:41.583Z,83.99
2023-04-02T06:56:41.586Z,84.20
2023-04-02T06:57:43.024Z,83.05
2023-04-02T06:58:41.565Z,82.84
2023-04-02T06:59:41.573Z,82.64
2023-04-02T07:00:41.537Z,82.53
2023-04-02T07:01:41.549Z,82.64
2023-04-02T07:02:41.522Z,82.95
2023-04-02T07:03:41.484Z,82.53
2023-04-02T07:04:41.577Z,82.60
2023-04-02T07:05:43.024Z,82.91
2023-04-02T07:06:41.473Z,81.98
2023-04-02T07:07:41.577Z,82.50
2023-04-02T07:08:41.456Z,82.39
2023-04-02T07:09:41.427Z,81.77
2023-04-02T07:10:41.431Z,81.15
2023-04-02T07:11:41.404Z,81.87
2023-04-02T07:12:41.407Z,81.84
2023-04-02T07:13:41.381Z,82.25
2023-04-02T07:14:41.378Z,81.94
2023-04-02T07:15:41.397Z,81.21
2023-04-02T07:16:41.366Z,81.32
2023-04-02T07:17:41.362Z,81.84
2023-04-02T07:18:41.336Z,81.94
2023-04-02T07:19:41.312Z,80.69
2023-04-02T07:20:41.311Z,80.59
2023-04-02T07:21:41.295Z,80.90
2023-04-02T07:22:41.306Z,80.18
2023-04-02T07:23:41.278Z,79.34
2023-04-02T07:24:41.322Z,79.27
2023-04-02T07:25:41.292Z,79.58
2023-04-02T07:26:41.283Z,80.00
2023-04-02T07:27:41.271Z,79.90
2023-04-02T07:28:41.274Z,79.97
2023-04-02T07:29:41.213Z,79.58
2023-04-02T07:30:41.214Z,79.80
2023-04-02T07:31:41.223Z,79.44
2023-04-02T07:32:41.246Z,79.24
2023-04-02T07:33:42.163Z,78.72
2023-04-02T07:34:41.174Z,78.61
2023-04-02T07:35:41.216Z,79.24
2023-04-02T07:36:41.166Z,79.34
2023-04-02T07:37:41.176Z,79.44
2023-04-02T07:38:41.203Z,78.92
2023-04-02T07:39:41.111Z,79.24
2023-04-02T07:40:41.119Z,79.44
2023-04-02T07:41:41.095Z,79.24
2023-04-02T07:42:41.091Z,78.72
2023-04-02T07:43:41.056Z,79.44
2023-04-02T07:44:41.074Z,79.55
2023-04-02T07:45:41.042Z,79.03
2023-04-02T07:46:41.119Z,79.55
2023-04-02T07:47:41.057Z,79.86
2023-04-02T07:48:41.041Z,79.97
2023-04-02T07:49:41.017Z,79.65
2023-04-02T07:50:41.002Z,79.13
2023-04-02T07:51:40.977Z,79.65
2023-04-02T07:52:40.984Z,79.86
2023-04-02T07:53:40.968Z,79.24
2023-04-02T07:54:40.963Z,79.55
2023-04-02T07:55:40.930Z,80.07
2023-04-02T07:56:40.948Z,79.93
2023-04-02T07:57:40.914Z,79.51
2023-04-02T07:58:40.923Z,78.61
2023-04-02T07:59:40.919Z,78.92
2023-04-02T08:00:40.917Z,78.72
2023-04-02T08:01:40.971Z,79.13
2023-04-02T08:02:40.918Z,79.20
2023-04-02T08:03:40.882Z,78.89
2023-04-02T08:04:40.861Z,78.99
2023-04-02T08:05:40.858Z,78.47
2023-04-02T08:06:40.837Z,77.85
2023-04-02T08:07:40.810Z,78.37
2023-04-02T08:08:40.817Z,78.96
2023-04-02T08:09:40.845Z,78.13
2023-04-02T08:10:40.796Z,76.47
2023-04-02T08:11:40.773Z,76.47
2023-04-02T08:12:40.774Z,76.37
2023-04-02T08:13:40.758Z,76.06
2023-04-02T08:14:40.754Z,75.74
2023-04-02T08:15:40.737Z,76.47
2023-04-02T08:16:40.762Z,75.64
2023-04-02T08:17:40.743Z,74.98
2023-04-02T08:18:40.701Z,76.02
2023-04-02T08:19:53.675Z,75.92
2023-04-02T08:20:41.704Z,75.19
2023-04-02T08:21:40.666Z,75.50
2023-04-02T08:22:40.677Z,74.98
2023-04-02T08:23:40.638Z,74.57
2023-04-02T08:24:40.668Z,74.05
2023-04-02T08:25:40.636Z,74.67
2023-04-02T08:26:40.629Z,74.67
2023-04-02T08:27:40.623Z,74.67
2023-04-02T08:28:40.621Z,75.26
2023-04-02T08:29:40.578Z,74.43
2023-04-02T08:30:40.598Z,74.84
2023-04-02T08:31:40.565Z,74.40
2023-04-02T08:32:40.749Z,74.60
2023-04-02T08:33:40.547Z,74.71
2023-04-02T08:34:40.560Z,74.08
2023-04-02T08:35:40.643Z,73.98
2023-04-02T08:36:40.526Z,73.36
2023-04-02T08:37:40.497Z,72.74
2023-04-02T08:38:40.519Z,73.25
2023-04-02T08:39:40.470Z,73.25
2023-04-02T08:40:40.606Z,73.53
2023-04-02T08:41:40.452Z,72.94
2023-04-02T08:42:40.476Z,72.53
2023-04-02T08:43:40.464Z,73.25
2023-04-02T08:44:40.448Z,73.63
2023-04-02T08:45:40.642Z,72.81
2023-04-02T08:46:40.410Z,73.11
2023-04-02T08:47:40.459Z,73.63
2023-04-02T08:48:42.611Z,71.77
2023-04-02T08:49:40.572Z,72.71
2023-04-02T08:50:40.379Z,73.11
2023-04-02T08:51:40.345Z,73.53
2023-04-02T08:52:40.581Z,74.02
2023-04-02T08:53:40.328Z,73.29
2023-04-02T08:54:40.343Z,73.08
2023-04-02T08:55:40.305Z,72.98
2023-04-02T08:56:40.355Z,72.98
2023-04-02T08:57:40.298Z,72.77
2023-04-02T08:58:40.903Z,72.56
2023-04-02T08:59:40.284Z,72.46
2023-04-02T09:00:40.256Z,73.29
2023-04-02T09:01:40.318Z,72.88
2023-04-02T09:02:40.281Z,73.08
2023-04-02T09:03:40.231Z,73.08
2023-04-02T09:04:40.277Z,73.08
2023-04-02T09:05:40.191Z,73.08
2023-04-02T09:06:40.236Z,73.29
2023-04-02T09:07:40.193Z,73.08
2023-04-02T09:08:40.181Z,73.39
2023-04-02T09:09:40.155Z,73.19
2023-04-02T09:10:40.178Z,72.46
2023-04-02T09:11:40.155Z,72.46
2023-04-02T09:12:42.257Z,72.53
2023-04-02T09:13:40.125Z,71.29
2023-04-02T09:14:40.254Z,71.60
2023-04-02T09:15:40.121Z,70.98
2023-04-02T09:16:40.107Z,71.39
2023-04-02T09:17:53.240Z,71.29
2023-04-02T09:18:41.271Z,71.08
2023-04-02T09:19:40.055Z,71.36
2023-04-02T09:20:40.047Z,69.60
2023-04-02T09:21:40.034Z,69.50
2023-04-02T09:22:40.054Z,70.64
2023-04-02T09:23:40.001Z,70.71
2023-04-02T09:24:40.020Z,72.16
2023-04-02T09:25:39.990Z,71.33
2023-04-02T09:26:39.986Z,71.43
2023-04-02T09:27:39.992Z,71.26
2023-04-02T09:28:39.973Z,72.50
2023-04-02T09:29:39.974Z,71.64
2023-04-02T09:30:39.960Z,72.05
2023-04-02T09:31:39.950Z,72.78
2023-04-02T09:32:39.971Z,71.95
2023-04-02T09:33:39.907Z,71.05
2023-04-02T09:34:39.933Z,71.26
2023-04-02T09:35:39.922Z,71.88
2023-04-02T09:36:39.883Z,71.57
2023-04-02T09:37:39.857Z,72.08
2023-04-02T09:38:39.861Z,71.60
2023-04-02T09:39:39.834Z,70.77
2023-04-02T09:40:40.544Z,71.15
2023-04-02T09:41:40.135Z,71.22
2023-04-02T09:42:39.943Z,71.81
2023-04-02T09:43:39.813Z,71.67
2023-04-02T09:44:39.840Z,71.88
2023-04-02T09:45:39.782Z,71.02
2023-04-02T09:46:39.826Z,69.92
2023-04-02T09:47:42.086Z,68.99
2023-04-02T09:48:39.777Z,69.78
2023-04-02T09:49:39.739Z,69.58
2023-04-02T09:50:39.734Z,69.27
2023-04-02T09:51:39.727Z,68.54
2023-04-02T09:52:39.731Z,68.62
2023-04-02T09:53:41.883Z,68.93
2023-04-02T09:54:39.729Z,67.76
2023-04-02T09:55:39.745Z,67.32
2023-04-02T09:56:39.675Z,67.93
2023-04-02T09:57:39.643Z,68.90
2023-04-02T09:58:39.696Z,67.97
2023-04-02T09:59:39.623Z,67.32
2023-04-02T10:00:39.742Z,66.49
2023-04-02T10:01:39.691Z,66.73
2023-04-02T10:02:39.620Z,67.14
2023-04-02T10:03:39.594Z,65.92
2023-04-02T10:04:39.614Z,64.68
2023-04-02T10:05:41.084Z,65.09
2023-04-02T10:06:39.537Z,65.74
2023-04-02T10:07:39.570Z,66.31
2023-04-02T10:08:39.524Z,67.27
2023-04-02T10:09:39.535Z,68.13
2023-04-02T10:10:39.513Z,68.93
2023-04-02T10:11:46.321Z,68.62
2023-04-02T10:12:40.545Z,67.58
2023-04-02T10:13:39.468Z,67.27
2023-04-02T10:14:39.465Z,67.38
2023-04-02T10:15:39.455Z,66.66
2023-04-02T10:16:39.523Z,67.90
2023-04-02T10:17:39.485Z,67.07
2023-04-02T10:18:39.417Z,67.69
2023-04-02T10:19:39.426Z,67.38
2023-04-02T10:20:50.508Z,66.66
2023-04-02T10:21:40.424Z,67.30
2023-04-02T10:22:39.383Z,67.72
2023-04-02T10:23:39.389Z,68.41
2023-04-02T10:24:39.348Z,67.79
2023-04-02T10:25:39.380Z,67.14
2023-04-02T10:26:39.350Z,67.07
2023-04-02T10:27:39.332Z,66.86
2023-04-02T10:28:39.310Z,66.76
2023-04-02T10:29:39.298Z,67.07
2023-04-02T10:30:39.351Z,68.00
2023-04-02T10:31:39.314Z,67.58
2023-04-02T10:32:39.291Z,67.69
2023-04-02T10:33:39.265Z,66.97
2023-04-02T10:34:39.431Z,67.58
2023-04-02T10:35:39.439Z,67.79
2023-04-02T10:36:39.228Z,68.17
2023-04-02T10:37:39.243Z,66.63
2023-04-02T10:38:39.207Z,67.14
2023-04-02T10:39:39.222Z,67.03
2023-04-02T10:40:39.175Z,67.48
2023-04-02T10:41:39.195Z,67.07
2023-04-02T10:42:39.159Z,67.17
2023-04-02T10:43:39.346Z,68.00
2023-04-02T10:44:39.138Z,68.00
2023-04-02T10:45:39.116Z,67.58
2023-04-02T10:46:39.213Z,67.90
2023-04-02T10:47:39.196Z,68.10
2023-04-02T10:48:40.074Z,68.17
2023-04-02T10:49:39.116Z,68.10
2023-04-02T10:50:39.086Z,67.69
2023-04-02T10:51:39.078Z,68.10
2023-04-02T10:52:39.069Z,67.90
2023-04-02T10:53:39.054Z,67.69
2023-04-02T10:54:39.023Z,67.90
2023-04-02T10:55:39.040Z,67.48
2023-04-02T10:56:50.165Z,66.63
2023-04-02T10:57:40.117Z,67.76
2023-04-02T10:58:39.009Z,66.80
2023-04-02T10:59:38.989Z,67.42
2023-04-02T11:00:38.973Z,66.94
2023-04-02T11:01:39.031Z,66.42
2023-04-02T11:02:39.021Z,66.63
2023-04-02T11:03:39.071Z,66.94
2023-04-02T11:04:38.921Z,66.94
2023-04-02T11:05:38.930Z,66.70
2023-04-02T11:06:38.916Z,66.42
2023-04-02T11:07:38.907Z,65.05
2023-04-02T11:08:38.881Z,64.74
2023-04-02T11:09:38.876Z,64.87
2023-04-02T11:10:38.852Z,64.98
2023-04-02T11:11:38.862Z,65.77
2023-04-02T11:12:41.526Z,64.43
2023-04-02T11:13:38.836Z,64.92
2023-04-02T11:14:38.912Z,65.02
2023-04-02T11:15:38.835Z,65.33
2023-04-02T11:16:43.353Z,64.47
2023-04-02T11:17:39.843Z,64.68
2023-04-02T11:18:38.853Z,65.50
2023-04-02T11:19:38.769Z,65.47
2023-04-02T11:20:38.745Z,65.37
2023-04-02T11:21:51.082Z,63.10
2023-04-02T11:22:39.743Z,62.90
2023-04-02T11:23:38.727Z,62.79
2023-04-02T11:24:38.959Z,63.42
2023-04-02T11:25:38.718Z,63.72
2023-04-02T11:26:38.694Z,62.90
2023-04-02T11:27:38.712Z,62.66
2023-04-02T11:28:38.770Z,62.53
2023-04-02T11:29:38.729Z,63.22
2023-04-02T11:30:38.654Z,62.88
2023-04-02T11:31:39.384Z,61.55
2023-04-02T11:32:38.659Z,61.17
2023-04-02T11:33:41.370Z,61.27
2023-04-02T11:34:39.616Z,60.86
2023-04-02T11:35:38.909Z,61.61
2023-04-02T11:36:38.606Z,61.71
2023-04-02T11:37:38.636Z,61.61
2023-04-02T11:38:38.671Z,60.99
2023-04-02T11:39:38.579Z,61.74
2023-04-02T11:40:38.538Z,62.56
2023-04-02T11:41:38.549Z,61.71
2023-04-02T11:42:38.550Z,62.30
2023-04-02T11:43:38.543Z,60.08
2023-04-02T11:44:38.538Z,59.95
2023-04-02T11:45:50.141Z,59.00
2023-04-02T11:46:39.546Z,59.44
2023-04-02T11:47:38.498Z,59.41
2023-04-02T11:48:38.463Z,59.69
2023-04-02T11:49:38.468Z,58.15
2023-04-02T11:50:38.461Z,58.23
2023-04-02T11:51:38.437Z,58.90
2023-04-02T11:52:38.444Z,58.83
2023-04-02T11:53:38.426Z,58.44
2023-04-02T11:54:38.392Z,57.79
2023-04-02T11:55:38.707Z,57.90
2023-04-02T11:56:38.362Z,57.59
2023-04-02T11:57:38.429Z,57.59
2023-04-02T11:58:38.344Z,57.56
2023-04-02T11:59:38.367Z,57.31
2023-04-02T12:00:38.414Z,56.69
2023-04-02T12:01:38.363Z,56.28
2023-04-02T12:02:38.404Z,57.20
2023-04-02T12:03:38.362Z,58.92
2023-04-02T12:04:38.298Z,56.90
2023-04-02T12:05:38.388Z,57.51
2023-04-02T12:06:38.291Z,58.61
2023-04-02T12:07:38.247Z,57.92
2023-04-02T12:08:50.702Z,57.13
2023-04-02T12:09:39.247Z,57.26
2023-04-02T12:10:38.209Z,57.51
2023-04-02T12:11:38.248Z,58.78
2023-04-02T12:12:38.209Z,58.64
2023-04-02T12:13:38.198Z,58.54
2023-04-02T12:14:38.295Z,58.62
2023-04-02T12:15:38.164Z,58.72
2023-04-02T12:16:38.236Z,56.85
2023-04-02T12:17:38.203Z,55.90
2023-04-02T12:18:38.130Z,55.92
2023-04-02T12:19:38.141Z,56.30
2023-04-02T12:20:38.286Z,56.18
2023-04-02T12:21:38.099Z,57.69
2023-04-02T12:22:38.087Z,56.54
2023-04-02T12:23:38.079Z,54.25
2023-04-02T12:24:38.061Z,55.49
2023-04-02T12:25:38.051Z,53.41
2023-04-02T12:26:38.337Z,55.71
2023-04-02T12:27:38.057Z,53.57
2023-04-02T12:28:38.048Z,52.70
2023-04-02T12:29:38.027Z,54.08
2023-04-02T12:30:38.100Z,55.15
2023-04-02T12:31:38.017Z,54.87
2023-04-02T12:32:37.962Z,55.82
2023-04-02T12:33:38.008Z,56.23
2023-04-02T12:34:37.983Z,56.02
2023-04-02T12:35:37.965Z,55.85
2023-04-02T12:36:37.940Z,56.77
2023-04-02T12:37:38.249Z,56.05
2023-04-02T12:38:37.893Z,56.56
2023-04-02T12:39:37.920Z,55.79
2023-04-02T12:40:38.183Z,56.05
2023-04-02T12:41:37.907Z,56.00
2023-04-02T12:42:37.856Z,53.90
2023-04-02T12:43:37.879Z,52.01
2023-04-02T12:44:37.853Z,53.21
2023-04-02T12:45:37.831Z,51.73
2023-04-02T12:46:37.934Z,51.63
2023-04-02T12:47:37.957Z,50.56
2023-04-02T12:48:37.799Z,50.28
2023-04-02T12:49:37.821Z,50.51
2023-04-02T12:50:38.206Z,50.25
2023-04-02T12:51:37.798Z,51.48
2023-04-02T12:52:37.745Z,52.72